sensor_id;sensor_type;location;lat;lon;timestamp;P1;durP1;ratioP1;P2;durP2;ratioP2
17141;SDS011;32805;53.556;9.944;2023-05-10T00:00:56;5.93;;;3.58;;
17141;SDS011;32805;53.556;9.944;2023-05-10T00:03:24;5.35;;;3.05;;
17141;SDS011;32805;53.556;9.944;2023-05-10T00:05:52;4.07;;;3.47;;
17141;SDS011;32805;53.556;9.944;2023-05-10T00:08:19;4.03;;;3.15;;
17141;SDS011;32805;53.556;9.944;2023-05-10T00:10:47;4.80;;;3.42;;
17141;SDS011;32805;53.556;9.944;2023-05-10T00:13:16;4.35;;;3.33;;
17141;SDS011;32805;53.556;9.944;2023-05-10T00:15:44;5.88;;;3.30;;
17141;SDS011;32805;53.556;9.944;2023-05-10T00:18:12;4.35;;;3.55;;
17141;SDS011;32805;53.556;9.944;2023-05-10T00:20:39;6.85;;;3.25;;
17141;SDS011;32805;53.556;9.944;2023-05-10T00:23:07;3.90;;;3.22;;
17141;SDS011;32805;53.556;9.944;2023-05-10T00:25:34;4.43;;;2.85;;
17141;SDS011;32805;53.556;9.944;2023-05-10T00:28:02;4.53;;;3.28;;
17141;SDS011;32805;53.556;9.944;2023-05-10T00:30:31;5.35;;;3.70;;
17141;SDS011;32805;53.556;9.944;2023-05-10T00:33:00;6.05;;;3.17;;
17141;SDS011;32805;53.556;9.944;2023-05-10T00:35:29;4.45;;;3.72;;
17141;SDS011;32805;53.556;9.944;2023-05-10T00:37:56;4.20;;;3.33;;
17141;SDS011;32805;53.556;9.944;2023-05-10T00:40:24;5.55;;;3.63;;
17141;SDS011;32805;53.556;9.944;2023-05-10T00:42:56;8.38;;;3.25;;
17141;SDS011;32805;53.556;9.944;2023-05-10T00:45:24;4.45;;;3.55;;
17141;SDS011;32805;53.556;9.944;2023-05-10T00:47:54;4.70;;;3.88;;
17141;SDS011;32805;53.556;9.944;2023-05-10T00:50:22;4.38;;;3.30;;
17141;SDS011;32805;53.556;9.944;2023-05-10T00:52:50;4.03;;;3.30;;
17141;SDS011;32805;53.556;9.944;2023-05-10T00:55:19;6.15;;;3.70;;
17141;SDS011;32805;53.556;9.944;2023-05-10T00:57:47;3.80;;;3.45;;
17141;SDS011;32805;53.556;9.944;2023-05-10T01:00:15;5.72;;;3.67;;
17141;SDS011;32805;53.556;9.944;2023-05-10T01:02:44;4.47;;;3.92;;
17141;SDS011;32805;53.556;9.944;2023-05-10T01:05:14;4.57;;;3.38;;
17141;SDS011;32805;53.556;9.944;2023-05-10T01:07:42;3.95;;;3.55;;
17141;SDS011;32805;53.556;9.944;2023-05-10T01:10:09;3.90;;;3.60;;
17141;SDS011;32805;53.556;9.944;2023-05-10T01:12:38;5.00;;;3.70;;
17141;SDS011;32805;53.556;9.944;2023-05-10T01:15:07;4.18;;;3.45;;
17141;SDS011;32805;53.556;9.944;2023-05-10T01:17:38;5.65;;;3.60;;
17141;SDS011;32805;53.556;9.944;2023-05-10T01:20:08;3.88;;;3.55;;
17141;SDS011;32805;53.556;9.944;2023-05-10T01:22:50;5.70;;;3.67;;
17141;SDS011;32805;53.556;9.944;2023-05-10T01:25:44;7.60;;;3.60;;
17141;SDS011;32805;53.556;9.944;2023-05-10T01:28:58;4.45;;;3.60;;
17141;SDS011;32805;53.556;9.944;2023-05-10T01:31:37;4.47;;;3.30;;
17141;SDS011;32805;53.556;9.944;2023-05-10T01:34:23;4.93;;;3.72;;
17141;SDS011;32805;53.556;9.944;2023-05-10T01:36:55;4.88;;;3.63;;
17141;SDS011;32805;53.556;9.944;2023-05-10T01:39:28;4.18;;;3.40;;
17141;SDS011;32805;53.556;9.944;2023-05-10T01:42:05;5.50;;;3.22;;
17141;SDS011;32805;53.556;9.944;2023-05-10T01:44:37;5.50;;;3.50;;
17141;SDS011;32805;53.556;9.944;2023-05-10T01:47:13;4.50;;;3.40;;
17141;SDS011;32805;53.556;9.944;2023-05-10T01:49:45;3.83;;;3.42;;
17141;SDS011;32805;53.556;9.944;2023-05-10T01:52:18;4.70;;;3.53;;
17141;SDS011;32805;53.556;9.944;2023-05-10T01:54:50;4.60;;;3.58;;
17141;SDS011;32805;53.556;9.944;2023-05-10T01:57:24;6.35;;;4.00;;
17141;SDS011;32805;53.556;9.944;2023-05-10T01:59:53;4.15;;;3.65;;
17141;SDS011;32805;53.556;9.944;2023-05-10T02:02:23;3.80;;;3.30;;
17141;SDS011;32805;53.556;9.944;2023-05-10T02:04:53;5.18;;;3.65;;
17141;SDS011;32805;53.556;9.944;2023-05-10T02:07:21;4.85;;;3.40;;
17141;SDS011;32805;53.556;9.944;2023-05-10T02:09:50;4.32;;;3.83;;
17141;SDS011;32805;53.556;9.944;2023-05-10T02:12:19;5.80;;;3.83;;
17141;SDS011;32805;53.556;9.944;2023-05-10T02:14:48;6.97;;;3.85;;
17141;SDS011;32805;53.556;9.944;2023-05-10T02:17:18;4.85;;;3.45;;
17141;SDS011;32805;53.556;9.944;2023-05-10T02:19:47;4.35;;;3.92;;
17141;SDS011;32805;53.556;9.944;2023-05-10T02:22:17;4.80;;;4.13;;
17141;SDS011;32805;53.556;9.944;2023-05-10T02:24:46;5.35;;;3.55;;
17141;SDS011;32805;53.556;9.944;2023-05-10T02:27:14;5.60;;;3.85;;
17141;SDS011;32805;53.556;9.944;2023-05-10T02:29:43;5.53;;;3.70;;
17141;SDS011;32805;53.556;9.944;2023-05-10T02:32:11;6.03;;;3.58;;
17141;SDS011;32805;53.556;9.944;2023-05-10T02:34:41;7.35;;;4.10;;
17141;SDS011;32805;53.556;9.944;2023-05-10T02:37:13;4.43;;;4.03;;
17141;SDS011;32805;53.556;9.944;2023-05-10T02:39:42;5.40;;;3.72;;
17141;SDS011;32805;53.556;9.944;2023-05-10T02:42:11;6.20;;;4.03;;
17141;SDS011;32805;53.556;9.944;2023-05-10T02:44:45;5.80;;;3.88;;
17141;SDS011;32805;53.556;9.944;2023-05-10T02:47:14;5.40;;;3.83;;
17141;SDS011;32805;53.556;9.944;2023-05-10T02:49:42;5.18;;;4.03;;
17141;SDS011;32805;53.556;9.944;2023-05-10T02:52:10;4.88;;;4.03;;
17141;SDS011;32805;53.556;9.944;2023-05-10T02:54:39;4.43;;;3.85;;
17141;SDS011;32805;53.556;9.944;2023-05-10T02:57:14;4.05;;;3.65;;
17141;SDS011;32805;53.556;9.944;2023-05-10T02:59:45;4.57;;;3.83;;
17141;SDS011;32805;53.556;9.944;2023-05-10T03:02:13;4.57;;;4.13;;
17141;SDS011;32805;53.556;9.944;2023-05-10T03:04:41;4.50;;;4.00;;
17141;SDS011;32805;53.556;9.944;2023-05-10T03:07:08;3.97;;;3.67;;
17141;SDS011;32805;53.556;9.944;2023-05-10T03:09:36;4.57;;;3.72;;
17141;SDS011;32805;53.556;9.944;2023-05-10T03:12:07;4.20;;;3.80;;
17141;SDS011;32805;53.556;9.944;2023-05-10T03:14:51;5.22;;;3.72;;
17141;SDS011;32805;53.556;9.944;2023-05-10T03:17:28;4.65;;;4.10;;
17141;SDS011;32805;53.556;9.944;2023-05-10T03:19:58;4.18;;;3.67;;
17141;SDS011;32805;53.556;9.944;2023-05-10T03:22:32;5.65;;;3.80;;
17141;SDS011;32805;53.556;9.944;2023-05-10T03:25:05;4.57;;;3.90;;
17141;SDS011;32805;53.556;9.944;2023-05-10T03:27:36;12.52;;;5.30;;
17141;SDS011;32805;53.556;9.944;2023-05-10T03:30:07;5.07;;;4.43;;
17141;SDS011;32805;53.556;9.944;2023-05-10T03:32:37;5.65;;;4.18;;
17141;SDS011;32805;53.556;9.944;2023-05-10T03:35:06;5.60;;;3.83;;
17141;SDS011;32805;53.556;9.944;2023-05-10T03:37:34;6.80;;;3.88;;
17141;SDS011;32805;53.556;9.944;2023-05-10T03:40:03;4.65;;;3.70;;
17141;SDS011;32805;53.556;9.944;2023-05-10T03:42:33;5.97;;;3.88;;
17141;SDS011;32805;53.556;9.944;2023-05-10T03:45:02;4.60;;;3.72;;
17141;SDS011;32805;53.556;9.944;2023-05-10T03:47:29;7.63;;;4.20;;
17141;SDS011;32805;53.556;9.944;2023-05-10T03:49:58;6.07;;;3.45;;
17141;SDS011;32805;53.556;9.944;2023-05-10T03:52:26;3.88;;;3.47;;
17141;SDS011;32805;53.556;9.944;2023-05-10T03:54:54;5.90;;;4.13;;
17141;SDS011;32805;53.556;9.944;2023-05-10T03:57:23;4.95;;;4.28;;
17141;SDS011;32805;53.556;9.944;2023-05-10T03:59:50;5.10;;;3.75;;
17141;SDS011;32805;53.556;9.944;2023-05-10T04:02:19;7.90;;;3.80;;
17141;SDS011;32805;53.556;9.944;2023-05-10T04:04:47;5.32;;;3.83;;
17141;SDS011;32805;53.556;9.944;2023-05-10T04:07:16;4.53;;;3.72;;
17141;SDS011;32805;53.556;9.944;2023-05-10T04:09:44;5.55;;;3.92;;
17141;SDS011;32805;53.556;9.944;2023-05-10T04:12:11;5.38;;;4.10;;
17141;SDS011;32805;53.556;9.944;2023-05-10T04:14:39;4.75;;;3.92;;
17141;SDS011;32805;53.556;9.944;2023-05-10T04:17:06;6.38;;;4.03;;
17141;SDS011;32805;53.556;9.944;2023-05-10T04:19:35;6.75;;;4.05;;
17141;SDS011;32805;53.556;9.944;2023-05-10T04:22:03;6.93;;;4.18;;
17141;SDS011;32805;53.556;9.944;2023-05-10T04:24:31;5.43;;;4.28;;
17141;SDS011;32805;53.556;9.944;2023-05-10T04:26:58;6.05;;;3.95;;
17141;SDS011;32805;53.556;9.944;2023-05-10T04:29:26;5.43;;;3.80;;
17141;SDS011;32805;53.556;9.944;2023-05-10T04:31:54;4.40;;;3.92;;
17141;SDS011;32805;53.556;9.944;2023-05-10T04:34:22;4.40;;;3.97;;
17141;SDS011;32805;53.556;9.944;2023-05-10T04:36:51;5.72;;;4.30;;
17141;SDS011;32805;53.556;9.944;2023-05-10T04:39:19;7.32;;;4.35;;
17141;SDS011;32805;53.556;9.944;2023-05-10T04:41:46;3.90;;;3.60;;
17141;SDS011;32805;53.556;9.944;2023-05-10T04:44:14;4.10;;;3.63;;
17141;SDS011;32805;53.556;9.944;2023-05-10T04:46:42;5.28;;;3.95;;
17141;SDS011;32805;53.556;9.944;2023-05-10T04:49:09;6.35;;;4.50;;
17141;SDS011;32805;53.556;9.944;2023-05-10T04:51:37;7.43;;;4.25;;
17141;SDS011;32805;53.556;9.944;2023-05-10T04:54:06;7.45;;;4.55;;
17141;SDS011;32805;53.556;9.944;2023-05-10T04:56:34;5.53;;;3.90;;
17141;SDS011;32805;53.556;9.944;2023-05-10T04:59:01;5.13;;;4.05;;
17141;SDS011;32805;53.556;9.944;2023-05-10T05:01:29;5.47;;;4.13;;
17141;SDS011;32805;53.556;9.944;2023-05-10T05:03:57;4.35;;;3.92;;
17141;SDS011;32805;53.556;9.944;2023-05-10T05:06:25;7.50;;;3.88;;
17141;SDS011;32805;53.556;9.944;2023-05-10T05:08:53;5.93;;;4.47;;
17141;SDS011;32805;53.556;9.944;2023-05-10T05:11:22;6.07;;;4.25;;
17141;SDS011;32805;53.556;9.944;2023-05-10T05:13:50;6.28;;;4.13;;
17141;SDS011;32805;53.556;9.944;2023-05-10T05:16:17;4.25;;;3.75;;
17141;SDS011;32805;53.556;9.944;2023-05-10T05:18:45;8.50;;;4.47;;
17141;SDS011;32805;53.556;9.944;2023-05-10T05:21:13;4.63;;;4.20;;
17141;SDS011;32805;53.556;9.944;2023-05-10T05:23:42;11.18;;;4.55;;
17141;SDS011;32805;53.556;9.944;2023-05-10T05:26:10;4.68;;;4.20;;
17141;SDS011;32805;53.556;9.944;2023-05-10T05:28:39;4.30;;;3.80;;
17141;SDS011;32805;53.556;9.944;2023-05-10T05:31:06;6.07;;;4.20;;
17141;SDS011;32805;53.556;9.944;2023-05-10T05:33:35;4.80;;;4.20;;
17141;SDS011;32805;53.556;9.944;2023-05-10T05:36:03;6.43;;;3.95;;
17141;SDS011;32805;53.556;9.944;2023-05-10T05:38:32;4.05;;;3.75;;
17141;SDS011;32805;53.556;9.944;2023-05-10T05:41:00;5.53;;;4.30;;
17141;SDS011;32805;53.556;9.944;2023-05-10T05:43:28;5.38;;;4.00;;
17141;SDS011;32805;53.556;9.944;2023-05-10T05:45:57;4.45;;;3.60;;
17141;SDS011;32805;53.556;9.944;2023-05-10T05:48:24;4.32;;;3.92;;
17141;SDS011;32805;53.556;9.944;2023-05-10T05:50:54;7.13;;;3.67;;
17141;SDS011;32805;53.556;9.944;2023-05-10T05:53:22;5.68;;;4.28;;
17141;SDS011;32805;53.556;9.944;2023-05-10T05:55:51;4.80;;;3.75;;
17141;SDS011;32805;53.556;9.944;2023-05-10T05:58:20;5.00;;;3.88;;
17141;SDS011;32805;53.556;9.944;2023-05-10T06:00:48;4.55;;;3.97;;
17141;SDS011;32805;53.556;9.944;2023-05-10T06:03:17;5.13;;;3.80;;
17141;SDS011;32805;53.556;9.944;2023-05-10T06:05:46;6.75;;;4.22;;
17141;SDS011;32805;53.556;9.944;2023-05-10T06:08:14;4.32;;;3.63;;
17141;SDS011;32805;53.556;9.944;2023-05-10T06:10:42;4.60;;;3.47;;
17141;SDS011;32805;53.556;9.944;2023-05-10T06:13:10;4.90;;;3.78;;
17141;SDS011;32805;53.556;9.944;2023-05-10T06:15:38;6.82;;;4.13;;
17141;SDS011;32805;53.556;9.944;2023-05-10T06:18:06;4.95;;;3.78;;
17141;SDS011;32805;53.556;9.944;2023-05-10T06:20:35;5.93;;;4.45;;
17141;SDS011;32805;53.556;9.944;2023-05-10T06:23:02;5.38;;;4.13;;
17141;SDS011;32805;53.556;9.944;2023-05-10T06:25:30;4.22;;;3.83;;
17141;SDS011;32805;53.556;9.944;2023-05-10T06:27:58;4.60;;;4.20;;
17141;SDS011;32805;53.556;9.944;2023-05-10T06:30:26;6.22;;;4.15;;
17141;SDS011;32805;53.556;9.944;2023-05-10T06:32:55;5.78;;;4.15;;
17141;SDS011;32805;53.556;9.944;2023-05-10T06:35:23;7.97;;;4.20;;
17141;SDS011;32805;53.556;9.944;2023-05-10T06:37:53;5.72;;;4.15;;
17141;SDS011;32805;53.556;9.944;2023-05-10T06:40:20;5.53;;;3.97;;
17141;SDS011;32805;53.556;9.944;2023-05-10T06:42:48;5.55;;;4.20;;
17141;SDS011;32805;53.556;9.944;2023-05-10T06:45:17;5.72;;;4.07;;
17141;SDS011;32805;53.556;9.944;2023-05-10T06:47:46;5.65;;;4.18;;
17141;SDS011;32805;53.556;9.944;2023-05-10T06:50:14;5.00;;;3.80;;
17141;SDS011;32805;53.556;9.944;2023-05-10T06:52:42;4.22;;;3.83;;
17141;SDS011;32805;53.556;9.944;2023-05-10T06:55:11;4.60;;;3.95;;
17141;SDS011;32805;53.556;9.944;2023-05-10T06:57:39;4.50;;;4.10;;
17141;SDS011;32805;53.556;9.944;2023-05-10T07:00:07;4.82;;;4.32;;
17141;SDS011;32805;53.556;9.944;2023-05-10T07:02:36;3.97;;;3.60;;
17141;SDS011;32805;53.556;9.944;2023-05-10T07:05:04;6.10;;;3.83;;
17141;SDS011;32805;53.556;9.944;2023-05-10T07:07:32;4.60;;;4.20;;
17141;SDS011;32805;53.556;9.944;2023-05-10T07:10:00;4.68;;;4.07;;
17141;SDS011;32805;53.556;9.944;2023-05-10T07:12:29;4.50;;;4.10;;
17141;SDS011;32805;53.556;9.944;2023-05-10T07:14:57;4.03;;;3.72;;
17141;SDS011;32805;53.556;9.944;2023-05-10T07:17:24;4.35;;;3.90;;
17141;SDS011;32805;53.556;9.944;2023-05-10T07:19:52;7.15;;;4.40;;
17141;SDS011;32805;53.556;9.944;2023-05-10T07:22:20;5.32;;;4.38;;
17141;SDS011;32805;53.556;9.944;2023-05-10T07:24:48;4.25;;;3.83;;
17141;SDS011;32805;53.556;9.944;2023-05-10T07:27:16;7.63;;;3.67;;
17141;SDS011;32805;53.556;9.944;2023-05-10T07:29:45;5.85;;;3.90;;
17141;SDS011;32805;53.556;9.944;2023-05-10T07:32:12;5.93;;;4.15;;
17141;SDS011;32805;53.556;9.944;2023-05-10T07:34:40;4.75;;;4.28;;
17141;SDS011;32805;53.556;9.944;2023-05-10T07:37:08;5.18;;;3.78;;
17141;SDS011;32805;53.556;9.944;2023-05-10T07:39:36;4.72;;;3.80;;
17141;SDS011;32805;53.556;9.944;2023-05-10T07:42:03;4.47;;;4.07;;
17141;SDS011;32805;53.556;9.944;2023-05-10T07:44:31;6.75;;;3.88;;
17141;SDS011;32805;53.556;9.944;2023-05-10T07:47:00;5.80;;;4.03;;
17141;SDS011;32805;53.556;9.944;2023-05-10T07:49:31;4.38;;;3.67;;
17141;SDS011;32805;53.556;9.944;2023-05-10T07:52:02;4.10;;;3.70;;
17141;SDS011;32805;53.556;9.944;2023-05-10T07:54:30;5.20;;;4.00;;
17141;SDS011;32805;53.556;9.944;2023-05-10T07:56:58;7.80;;;4.82;;
17141;SDS011;32805;53.556;9.944;2023-05-10T07:59:28;6.07;;;4.45;;
17141;SDS011;32805;53.556;9.944;2023-05-10T08:02:01;4.75;;;4.10;;
17141;SDS011;32805;53.556;9.944;2023-05-10T08:04:29;5.65;;;3.78;;
17141;SDS011;32805;53.556;9.944;2023-05-10T08:06:57;5.03;;;4.00;;
17141;SDS011;32805;53.556;9.944;2023-05-10T08:09:24;4.20;;;3.80;;
17141;SDS011;32805;53.556;9.944;2023-05-10T08:11:52;3.97;;;3.53;;
17141;SDS011;32805;53.556;9.944;2023-05-10T08:14:22;4.30;;;3.85;;
17141;SDS011;32805;53.556;9.944;2023-05-10T08:16:50;4.40;;;4.00;;
17141;SDS011;32805;53.556;9.944;2023-05-10T08:19:19;5.78;;;4.20;;
17141;SDS011;32805;53.556;9.944;2023-05-10T08:21:47;3.95;;;3.65;;
17141;SDS011;32805;53.556;9.944;2023-05-10T08:24:15;4.43;;;3.75;;
17141;SDS011;32805;53.556;9.944;2023-05-10T08:26:43;4.30;;;3.90;;
17141;SDS011;32805;53.556;9.944;2023-05-10T08:29:11;6.57;;;3.92;;
17141;SDS011;32805;53.556;9.944;2023-05-10T08:31:38;4.68;;;4.18;;
17141;SDS011;32805;53.556;9.944;2023-05-10T08:34:06;4.75;;;4.20;;
17141;SDS011;32805;53.556;9.944;2023-05-10T08:39:04;4.72;;;4.10;;
17141;SDS011;32805;53.556;9.944;2023-05-10T08:41:45;5.78;;;4.10;;
17141;SDS011;32805;53.556;9.944;2023-05-10T08:44:15;6.15;;;4.10;;
17141;SDS011;32805;53.556;9.944;2023-05-10T08:46:44;4.90;;;4.00;;
17141;SDS011;32805;53.556;9.944;2023-05-10T08:49:15;4.28;;;3.88;;
17141;SDS011;32805;53.556;9.944;2023-05-10T08:51:53;4.78;;;3.80;;
17141;SDS011;32805;53.556;9.944;2023-05-10T08:54:22;5.03;;;4.07;;
17141;SDS011;32805;53.556;9.944;2023-05-10T08:56:50;4.93;;;3.88;;
17141;SDS011;32805;53.556;9.944;2023-05-10T08:59:19;5.15;;;4.03;;
17141;SDS011;32805;53.556;9.944;2023-05-10T09:01:47;5.35;;;3.90;;
17141;SDS011;32805;53.556;9.944;2023-05-10T09:04:17;10.15;;;5.10;;
17141;SDS011;32805;53.556;9.944;2023-05-10T09:06:46;5.40;;;4.18;;
17141;SDS011;32805;53.556;9.944;2023-05-10T09:09:13;6.63;;;4.32;;
17141;SDS011;32805;53.556;9.944;2023-05-10T09:11:42;6.50;;;4.82;;
17141;SDS011;32805;53.556;9.944;2023-05-10T09:14:10;8.20;;;4.95;;
17141;SDS011;32805;53.556;9.944;2023-05-10T09:16:39;4.22;;;3.75;;
17141;SDS011;32805;53.556;9.944;2023-05-10T09:19:08;4.88;;;4.28;;
17141;SDS011;32805;53.556;9.944;2023-05-10T09:21:36;5.68;;;4.47;;
17141;SDS011;32805;53.556;9.944;2023-05-10T09:24:07;5.15;;;4.43;;
17141;SDS011;32805;53.556;9.944;2023-05-10T09:26:35;6.70;;;4.10;;
17141;SDS011;32805;53.556;9.944;2023-05-10T09:29:13;6.63;;;5.05;;
17141;SDS011;32805;53.556;9.944;2023-05-10T09:31:43;6.53;;;4.78;;
17141;SDS011;32805;53.556;9.944;2023-05-10T09:34:17;5.90;;;4.63;;
17141;SDS011;32805;53.556;9.944;2023-05-10T09:36:51;5.28;;;4.60;;
17141;SDS011;32805;53.556;9.944;2023-05-10T09:39:31;5.53;;;4.93;;
17141;SDS011;32805;53.556;9.944;2023-05-10T09:42:01;6.10;;;4.93;;
17141;SDS011;32805;53.556;9.944;2023-05-10T09:44:31;5.40;;;4.90;;
17141;SDS011;32805;53.556;9.944;2023-05-10T09:46:59;5.25;;;4.50;;
17141;SDS011;32805;53.556;9.944;2023-05-10T09:49:27;7.72;;;5.53;;
17141;SDS011;32805;53.556;9.944;2023-05-10T09:52:02;5.97;;;5.10;;
17141;SDS011;32805;53.556;9.944;2023-05-10T09:54:33;5.93;;;5.32;;
17141;SDS011;32805;53.556;9.944;2023-05-10T09:57:02;6.63;;;5.15;;
17141;SDS011;32805;53.556;9.944;2023-05-10T09:59:30;6.35;;;5.35;;
17141;SDS011;32805;53.556;9.944;2023-05-10T10:02:01;5.20;;;4.80;;
17141;SDS011;32805;53.556;9.944;2023-05-10T10:04:53;5.75;;;4.85;;
17141;SDS011;32805;53.556;9.944;2023-05-10T10:07:22;7.05;;;5.65;;
17141;SDS011;32805;53.556;9.944;2023-05-10T10:09:53;9.05;;;5.40;;
17141;SDS011;32805;53.556;9.944;2023-05-10T10:12:20;8.25;;;5.55;;
17141;SDS011;32805;53.556;9.944;2023-05-10T10:14:48;8.38;;;6.00;;
17141;SDS011;32805;53.556;9.944;2023-05-10T10:17:17;6.35;;;5.38;;
17141;SDS011;32805;53.556;9.944;2023-05-10T10:19:46;6.85;;;5.47;;
17141;SDS011;32805;53.556;9.944;2023-05-10T10:22:16;9.60;;;5.80;;
17141;SDS011;32805;53.556;9.944;2023-05-10T10:24:44;8.10;;;6.32;;
17141;SDS011;32805;53.556;9.944;2023-05-10T10:27:20;7.38;;;6.68;;
17141;SDS011;32805;53.556;9.944;2023-05-10T10:30:01;7.20;;;6.38;;
17141;SDS011;32805;53.556;9.944;2023-05-10T10:32:37;7.78;;;6.25;;
17141;SDS011;32805;53.556;9.944;2023-05-10T10:35:14;7.47;;;6.78;;
17141;SDS011;32805;53.556;9.944;2023-05-10T10:37:43;7.03;;;6.00;;
17141;SDS011;32805;53.556;9.944;2023-05-10T10:40:25;7.13;;;6.45;;
17141;SDS011;32805;53.556;9.944;2023-05-10T10:43:20;9.30;;;6.75;;
17141;SDS011;32805;53.556;9.944;2023-05-10T10:46:10;7.95;;;6.55;;
17141;SDS011;32805;53.556;9.944;2023-05-10T10:48:40;8.25;;;6.60;;
17141;SDS011;32805;53.556;9.944;2023-05-10T10:51:08;7.80;;;6.80;;
17141;SDS011;32805;53.556;9.944;2023-05-10T10:53:38;7.43;;;6.68;;
17141;SDS011;32805;53.556;9.944;2023-05-10T10:56:08;8.13;;;6.88;;
17141;SDS011;32805;53.556;9.944;2023-05-10T10:58:38;8.25;;;7.45;;
17141;SDS011;32805;53.556;9.944;2023-05-10T11:01:13;7.47;;;6.78;;
17141;SDS011;32805;53.556;9.944;2023-05-10T11:03:54;7.07;;;6.32;;
17141;SDS011;32805;53.556;9.944;2023-05-10T11:06:44;7.28;;;6.45;;
17141;SDS011;32805;53.556;9.944;2023-05-10T11:09:12;8.68;;;7.40;;
17141;SDS011;32805;53.556;9.944;2023-05-10T11:11:50;7.20;;;6.50;;
17141;SDS011;32805;53.556;9.944;2023-05-10T11:14:22;7.00;;;5.97;;
17141;SDS011;32805;53.556;9.944;2023-05-10T11:16:50;7.18;;;6.47;;
17141;SDS011;32805;53.556;9.944;2023-05-10T11:19:19;7.13;;;6.43;;
17141;SDS011;32805;53.556;9.944;2023-05-10T11:21:47;8.73;;;6.47;;
17141;SDS011;32805;53.556;9.944;2023-05-10T11:24:16;7.78;;;6.53;;
17141;SDS011;32805;53.556;9.944;2023-05-10T11:26:45;7.70;;;6.93;;
17141;SDS011;32805;53.556;9.944;2023-05-10T11:29:15;7.47;;;6.80;;
17141;SDS011;32805;53.556;9.944;2023-05-10T11:31:45;7.75;;;6.97;;
17141;SDS011;32805;53.556;9.944;2023-05-10T11:34:22;7.72;;;6.95;;
17141;SDS011;32805;53.556;9.944;2023-05-10T11:36:51;9.73;;;7.47;;
17141;SDS011;32805;53.556;9.944;2023-05-10T11:39:20;7.95;;;6.57;;
17141;SDS011;32805;53.556;9.944;2023-05-10T11:41:52;8.20;;;7.40;;
17141;SDS011;32805;53.556;9.944;2023-05-10T11:44:21;8.32;;;7.40;;
17141;SDS011;32805;53.556;9.944;2023-05-10T11:46:50;8.43;;;7.38;;
17141;SDS011;32805;53.556;9.944;2023-05-10T11:49:18;8.75;;;7.10;;
17141;SDS011;32805;53.556;9.944;2023-05-10T11:51:46;8.13;;;7.00;;
17141;SDS011;32805;53.556;9.944;2023-05-10T11:54:14;8.48;;;7.68;;
17141;SDS011;32805;53.556;9.944;2023-05-10T11:56:42;7.70;;;6.47;;
17141;SDS011;32805;53.556;9.944;2023-05-10T11:59:13;7.20;;;6.60;;
17141;SDS011;32805;53.556;9.944;2023-05-10T12:01:41;7.43;;;6.72;;
17141;SDS011;32805;53.556;9.944;2023-05-10T12:04:10;7.53;;;6.82;;
17141;SDS011;32805;53.556;9.944;2023-05-10T12:06:39;8.20;;;6.85;;
17141;SDS011;32805;53.556;9.944;2023-05-10T12:09:07;7.90;;;6.72;;
17141;SDS011;32805;53.556;9.944;2023-05-10T12:11:37;6.93;;;6.22;;
17141;SDS011;32805;53.556;9.944;2023-05-10T12:14:09;9.15;;;6.20;;
17141;SDS011;32805;53.556;9.944;2023-05-10T12:16:37;6.72;;;6.13;;
17141;SDS011;32805;53.556;9.944;2023-05-10T12:19:05;7.63;;;6.72;;
17141;SDS011;32805;53.556;9.944;2023-05-10T12:21:34;8.20;;;6.60;;
17141;SDS011;32805;53.556;9.944;2023-05-10T12:24:02;7.43;;;6.72;;
17141;SDS011;32805;53.556;9.944;2023-05-10T12:26:31;7.05;;;6.35;;
17141;SDS011;32805;53.556;9.944;2023-05-10T12:29:11;7.15;;;6.45;;
17141;SDS011;32805;53.556;9.944;2023-05-10T12:31:54;9.90;;;7.47;;
17141;SDS011;32805;53.556;9.944;2023-05-10T12:34:23;7.65;;;6.95;;
17141;SDS011;32805;53.556;9.944;2023-05-10T12:36:53;7.72;;;6.85;;
17141;SDS011;32805;53.556;9.944;2023-05-10T12:39:21;7.65;;;6.68;;
17141;SDS011;32805;53.556;9.944;2023-05-10T12:41:49;8.48;;;7.28;;
17141;SDS011;32805;53.556;9.944;2023-05-10T12:44:18;8.60;;;7.70;;
17141;SDS011;32805;53.556;9.944;2023-05-10T12:46:46;8.50;;;7.30;;
17141;SDS011;32805;53.556;9.944;2023-05-10T12:49:14;7.85;;;7.05;;
17141;SDS011;32805;53.556;9.944;2023-05-10T12:51:41;7.63;;;6.90;;
17141;SDS011;32805;53.556;9.944;2023-05-10T12:54:10;7.63;;;6.93;;
17141;SDS011;32805;53.556;9.944;2023-05-10T12:56:38;7.07;;;6.38;;
17141;SDS011;32805;53.556;9.944;2023-05-10T12:59:07;7.72;;;6.13;;
17141;SDS011;32805;53.556;9.944;2023-05-10T13:01:36;6.65;;;5.50;;
17141;SDS011;32805;53.556;9.944;2023-05-10T13:04:06;5.90;;;5.30;;
17141;SDS011;32805;53.556;9.944;2023-05-10T13:06:34;6.18;;;5.57;;
17141;SDS011;32805;53.556;9.944;2023-05-10T13:09:02;6.95;;;4.85;;
17141;SDS011;32805;53.556;9.944;2023-05-10T13:11:31;5.65;;;5.13;;
17141;SDS011;32805;53.556;9.944;2023-05-10T13:13:58;4.85;;;4.45;;
17141;SDS011;32805;53.556;9.944;2023-05-10T13:16:32;4.82;;;4.40;;
17141;SDS011;32805;53.556;9.944;2023-05-10T13:19:00;4.38;;;3.97;;
17141;SDS011;32805;53.556;9.944;2023-05-10T13:21:29;4.85;;;4.45;;
17141;SDS011;32805;53.556;9.944;2023-05-10T13:23:56;4.68;;;4.28;;
17141;SDS011;32805;53.556;9.944;2023-05-10T13:26:24;4.88;;;4.47;;
17141;SDS011;32805;53.556;9.944;2023-05-10T13:28:53;6.97;;;4.45;;
17141;SDS011;32805;53.556;9.944;2023-05-10T13:31:21;4.70;;;4.30;;
17141;SDS011;32805;53.556;9.944;2023-05-10T13:33:49;8.27;;;4.40;;
17141;SDS011;32805;53.556;9.944;2023-05-10T13:36:17;5.32;;;4.82;;
17141;SDS011;32805;53.556;9.944;2023-05-10T13:38:44;5.97;;;5.32;;
17141;SDS011;32805;53.556;9.944;2023-05-10T13:41:14;6.47;;;5.05;;
17141;SDS011;32805;53.556;9.944;2023-05-10T13:43:42;5.43;;;5.00;;
17141;SDS011;32805;53.556;9.944;2023-05-10T13:46:11;5.40;;;4.85;;
17141;SDS011;32805;53.556;9.944;2023-05-10T13:48:39;5.03;;;4.53;;
17141;SDS011;32805;53.556;9.944;2023-05-10T13:51:07;5.55;;;5.05;;
17141;SDS011;32805;53.556;9.944;2023-05-10T13:53:34;5.40;;;5.00;;
17141;SDS011;32805;53.556;9.944;2023-05-10T13:56:06;6.63;;;4.43;;
17141;SDS011;32805;53.556;9.944;2023-05-10T13:58:33;5.50;;;5.00;;
17141;SDS011;32805;53.556;9.944;2023-05-10T14:01:02;6.50;;;5.03;;
17141;SDS011;32805;53.556;9.944;2023-05-10T14:03:32;5.97;;;4.90;;
17141;SDS011;32805;53.556;9.944;2023-05-10T14:06:00;5.68;;;5.18;;
17141;SDS011;32805;53.556;9.944;2023-05-10T14:08:28;5.93;;;5.32;;
17141;SDS011;32805;53.556;9.944;2023-05-10T14:10:56;6.40;;;5.85;;
17141;SDS011;32805;53.556;9.944;2023-05-10T14:13:23;5.80;;;5.28;;
17141;SDS011;32805;53.556;9.944;2023-05-10T14:15:52;6.55;;;5.07;;
17141;SDS011;32805;53.556;9.944;2023-05-10T14:18:20;6.50;;;4.85;;
17141;SDS011;32805;53.556;9.944;2023-05-10T14:20:49;5.32;;;4.85;;
17141;SDS011;32805;53.556;9.944;2023-05-10T14:23:17;5.18;;;4.68;;
17141;SDS011;32805;53.556;9.944;2023-05-10T14:25:46;5.65;;;5.13;;
17141;SDS011;32805;53.556;9.944;2023-05-10T14:28:13;5.45;;;4.50;;
17141;SDS011;32805;53.556;9.944;2023-05-10T14:30:42;5.45;;;4.95;;
17141;SDS011;32805;53.556;9.944;2023-05-10T14:33:09;4.78;;;4.25;;
17141;SDS011;32805;53.556;9.944;2023-05-10T14:35:37;5.18;;;4.55;;
17141;SDS011;32805;53.556;9.944;2023-05-10T14:38:06;4.35;;;3.95;;
17141;SDS011;32805;53.556;9.944;2023-05-10T14:40:34;4.78;;;4.28;;
17141;SDS011;32805;53.556;9.944;2023-05-10T14:43:02;5.80;;;5.30;;
17141;SDS011;32805;53.556;9.944;2023-05-10T14:45:29;5.50;;;5.00;;
17141;SDS011;32805;53.556;9.944;2023-05-10T14:47:57;6.25;;;5.50;;
17141;SDS011;32805;53.556;9.944;2023-05-10T14:50:25;5.57;;;5.03;;
17141;SDS011;32805;53.556;9.944;2023-05-10T14:53:02;5.07;;;4.68;;
17141;SDS011;32805;53.556;9.944;2023-05-10T14:55:31;4.63;;;4.22;;
17141;SDS011;32805;53.556;9.944;2023-05-10T14:58:01;5.88;;;5.15;;
17141;SDS011;32805;53.556;9.944;2023-05-10T15:00:29;5.80;;;4.78;;
17141;SDS011;32805;53.556;9.944;2023-05-10T15:02:58;5.47;;;5.05;;
17141;SDS011;32805;53.556;9.944;2023-05-10T15:05:26;5.60;;;5.10;;